sensor_id;sensor_type;location;lat;lon;timestamp;P1;durP1;ratioP1;P2;durP2;ratioP2
23400;SDS011;11873;49.300;8.920;2023-06-14T00:02:52;3.83;;;3.47;;
23400;SDS011;11873;49.300;8.920;2023-06-14T00:07:52;4.90;;;3.33;;
23400;SDS011;11873;49.300;8.920;2023-06-14T00:12:52;4.00;;;3.70;;
23400;SDS011;11873;49.300;8.920;2023-06-14T00:17:52;4.10;;;3.33;;
23400;SDS011;11873;49.300;8.920;2023-06-14T00:22:53;4.13;;;3.70;;
23400;SDS011;11873;49.300;8.920;2023-06-14T00:27:53;4.30;;;3.57;;
23400;SDS011;11873;49.300;8.920;2023-06-14T00:32:54;4.37;;;3.93;;
23400;SDS011;11873;49.300;8.920;2023-06-14T00:37:54;3.80;;;3.50;;
23400;SDS011;11873;49.300;8.920;2023-06-14T00:42:54;7.13;;;3.50;;
23400;SDS011;11873;49.300;8.920;2023-06-14T00:47:54;3.70;;;3.40;;
23400;SDS011;11873;49.300;8.920;2023-06-14T00:52:56;5.13;;;3.17;;
23400;SDS011;11873;49.300;8.920;2023-06-14T00:57:56;3.80;;;3.33;;
23400;SDS011;11873;49.300;8.920;2023-06-14T01:02:56;3.97;;;3.67;;
23400;SDS011;11873;49.300;8.920;2023-06-14T01:08:11;3.97;;;3.63;;
23400;SDS011;11873;49.300;8.920;2023-06-14T01:18:18;4.10;;;3.40;;
23400;SDS011;11873;49.300;8.920;2023-06-14T01:23:18;4.83;;;3.33;;
23400;SDS011;11873;49.300;8.920;2023-06-14T01:28:19;4.07;;;3.37;;
23400;SDS011;11873;49.300;8.920;2023-06-14T01:33:24;3.97;;;3.60;;
23400;SDS011;11873;49.300;8.920;2023-06-14T01:38:26;3.87;;;3.43;;
23400;SDS011;11873;49.300;8.920;2023-06-14T01:43:27;3.83;;;3.43;;
23400;SDS011;11873;49.300;8.920;2023-06-14T01:48:29;4.30;;;3.90;;
23400;SDS011;11873;49.300;8.920;2023-06-14T01:53:29;4.97;;;3.57;;
23400;SDS011;11873;49.300;8.920;2023-06-14T01:58:30;4.67;;;3.33;;
23400;SDS011;11873;49.300;8.920;2023-06-14T02:03:30;4.93;;;3.93;;
23400;SDS011;11873;49.300;8.920;2023-06-14T02:08:30;4.63;;;3.70;;
23400;SDS011;11873;49.300;8.920;2023-06-14T02:13:30;5.17;;;3.80;;
23400;SDS011;11873;49.300;8.920;2023-06-14T02:18:30;4.27;;;3.70;;
23400;SDS011;11873;49.300;8.920;2023-06-14T02:23:30;4.00;;;3.70;;
23400;SDS011;11873;49.300;8.920;2023-06-14T02:28:31;5.40;;;3.43;;
23400;SDS011;11873;49.300;8.920;2023-06-14T02:33:31;3.63;;;3.33;;
23400;SDS011;11873;49.300;8.920;2023-06-14T02:38:31;3.97;;;3.67;;
23400;SDS011;11873;49.300;8.920;2023-06-14T02:43:31;6.17;;;3.93;;
23400;SDS011;11873;49.300;8.920;2023-06-14T02:48:31;3.70;;;3.40;;
23400;SDS011;11873;49.300;8.920;2023-06-14T02:53:32;4.50;;;4.07;;
23400;SDS011;11873;49.300;8.920;2023-06-14T02:58:32;4.07;;;3.57;;
23400;SDS011;11873;49.300;8.920;2023-06-14T03:03:32;5.80;;;4.13;;
23400;SDS011;11873;49.300;8.920;2023-06-14T03:08:32;4.27;;;3.87;;
23400;SDS011;11873;49.300;8.920;2023-06-14T03:13:32;4.37;;;3.97;;
23400;SDS011;11873;49.300;8.920;2023-06-14T03:18:33;4.27;;;3.90;;
23400;SDS011;11873;49.300;8.920;2023-06-14T03:23:33;5.67;;;4.00;;
23400;SDS011;11873;49.300;8.920;2023-06-14T03:28:33;4.27;;;3.97;;
23400;SDS011;11873;49.300;8.920;2023-06-14T03:33:33;4.67;;;4.20;;
23400;SDS011;11873;49.300;8.920;2023-06-14T03:38:33;6.57;;;4.13;;
23400;SDS011;11873;49.300;8.920;2023-06-14T03:43:34;8.43;;;4.00;;
23400;SDS011;11873;49.300;8.920;2023-06-14T03:48:34;6.97;;;4.50;;
23400;SDS011;11873;49.300;8.920;2023-06-14T03:53:34;5.17;;;4.67;;
23400;SDS011;11873;49.300;8.920;2023-06-14T03:58:34;5.27;;;4.50;;
23400;SDS011;11873;49.300;8.920;2023-06-14T04:03:34;6.17;;;5.17;;
23400;SDS011;11873;49.300;8.920;2023-06-14T04:08:35;4.53;;;4.17;;
23400;SDS011;11873;49.300;8.920;2023-06-14T04:13:35;6.17;;;4.57;;
23400;SDS011;11873;49.300;8.920;2023-06-14T04:18:35;4.63;;;4.10;;
23400;SDS011;11873;49.300;8.920;2023-06-14T04:23:35;6.70;;;4.80;;
23400;SDS011;11873;49.300;8.920;2023-06-14T04:28:35;6.37;;;5.00;;
23400;SDS011;11873;49.300;8.920;2023-06-14T04:33:36;5.50;;;4.27;;
23400;SDS011;11873;49.300;8.920;2023-06-14T04:38:36;6.03;;;5.33;;
23400;SDS011;11873;49.300;8.920;2023-06-14T04:43:36;4.83;;;4.30;;
23400;SDS011;11873;49.300;8.920;2023-06-14T04:48:37;4.53;;;3.83;;
23400;SDS011;11873;49.300;8.920;2023-06-14T04:53:37;4.93;;;4.03;;
23400;SDS011;11873;49.300;8.920;2023-06-14T04:58:37;5.00;;;3.83;;
23400;SDS011;11873;49.300;8.920;2023-06-14T05:03:38;4.30;;;3.90;;
23400;SDS011;11873;49.300;8.920;2023-06-14T05:08:38;6.07;;;4.17;;
23400;SDS011;11873;49.300;8.920;2023-06-14T05:13:38;4.80;;;3.83;;
23400;SDS011;11873;49.300;8.920;2023-06-14T05:18:38;7.30;;;4.30;;
23400;SDS011;11873;49.300;8.920;2023-06-14T05:23:38;4.23;;;3.83;;
23400;SDS011;11873;49.300;8.920;2023-06-14T05:28:38;3.87;;;3.57;;
23400;SDS011;11873;49.300;8.920;2023-06-14T05:33:39;4.43;;;4.00;;
23400;SDS011;11873;49.300;8.920;2023-06-14T05:38:39;4.63;;;4.20;;
23400;SDS011;11873;49.300;8.920;2023-06-14T05:43:39;7.93;;;3.60;;
23400;SDS011;11873;49.300;8.920;2023-06-14T05:48:39;3.77;;;3.47;;
23400;SDS011;11873;49.300;8.920;2023-06-14T05:53:39;4.03;;;3.13;;
23400;SDS011;11873;49.300;8.920;2023-06-14T05:58:40;4.33;;;3.37;;
23400;SDS011;11873;49.300;8.920;2023-06-14T06:03:40;3.90;;;3.10;;
23400;SDS011;11873;49.300;8.920;2023-06-14T06:08:40;5.50;;;3.50;;
23400;SDS011;11873;49.300;8.920;2023-06-14T06:13:40;6.67;;;3.47;;
23400;SDS011;11873;49.300;8.920;2023-06-14T06:18:40;5.87;;;3.10;;
23400;SDS011;11873;49.300;8.920;2023-06-14T06:23:40;5.57;;;3.37;;
23400;SDS011;11873;49.300;8.920;2023-06-14T06:28:41;4.30;;;3.53;;
23400;SDS011;11873;49.300;8.920;2023-06-14T06:33:41;3.73;;;2.93;;
23400;SDS011;11873;49.300;8.920;2023-06-14T06:38:41;3.07;;;2.87;;
23400;SDS011;11873;49.300;8.920;2023-06-14T06:43:41;4.00;;;3.60;;
23400;SDS011;11873;49.300;8.920;2023-06-14T06:48:41;4.50;;;4.03;;
23400;SDS011;11873;49.300;8.920;2023-06-14T06:53:42;3.47;;;3.17;;
23400;SDS011;11873;49.300;8.920;2023-06-14T06:58:42;3.80;;;3.33;;
23400;SDS011;11873;49.300;8.920;2023-06-14T07:03:43;3.97;;;3.53;;
23400;SDS011;11873;49.300;8.920;2023-06-14T07:08:43;5.77;;;3.63;;
23400;SDS011;11873;49.300;8.920;2023-06-14T07:13:43;3.50;;;3.10;;
23400;SDS011;11873;49.300;8.920;2023-06-14T07:18:43;4.13;;;3.30;;
23400;SDS011;11873;49.300;8.920;2023-06-14T07:23:43;4.60;;;3.83;;
23400;SDS011;11873;49.300;8.920;2023-06-14T07:28:44;5.47;;;3.30;;
23400;SDS011;11873;49.300;8.920;2023-06-14T07:33:44;4.00;;;3.50;;
23400;SDS011;11873;49.300;8.920;2023-06-14T07:38:45;3.17;;;2.97;;
23400;SDS011;11873;49.300;8.920;2023-06-14T07:43:45;5.80;;;3.97;;
23400;SDS011;11873;49.300;8.920;2023-06-14T07:48:46;3.80;;;3.50;;
23400;SDS011;11873;49.300;8.920;2023-06-14T07:53:46;3.60;;;3.30;;
23400;SDS011;11873;49.300;8.920;2023-06-14T07:58:46;4.43;;;3.80;;
23400;SDS011;11873;49.300;8.920;2023-06-14T08:03:46;5.53;;;3.90;;
23400;SDS011;11873;49.300;8.920;2023-06-14T08:08:46;3.67;;;3.37;;
23400;SDS011;11873;49.300;8.920;2023-06-14T08:13:46;2.83;;;2.53;;
23400;SDS011;11873;49.300;8.920;2023-06-14T08:18:48;5.97;;;3.40;;
23400;SDS011;11873;49.300;8.920;2023-06-14T08:23:48;3.50;;;3.20;;
23400;SDS011;11873;49.300;8.920;2023-06-14T08:28:48;4.33;;;3.40;;
23400;SDS011;11873;49.300;8.920;2023-06-14T08:33:48;5.33;;;3.37;;
23400;SDS011;11873;49.300;8.920;2023-06-14T08:38:49;2.30;;;2.17;;
23400;SDS011;11873;49.300;8.920;2023-06-14T08:43:49;3.83;;;3.40;;
23400;SDS011;11873;49.300;8.920;2023-06-14T08:48:49;3.77;;;3.47;;
23400;SDS011;11873;49.300;8.920;2023-06-14T08:53:52;3.60;;;3.30;;
23400;SDS011;11873;49.300;8.920;2023-06-14T08:58:52;6.07;;;3.27;;
23400;SDS011;11873;49.300;8.920;2023-06-14T09:03:53;3.07;;;2.80;;
23400;SDS011;11873;49.300;8.920;2023-06-14T09:08:54;5.03;;;3.33;;
23400;SDS011;11873;49.300;8.920;2023-06-14T09:13:54;3.00;;;2.80;;
23400;SDS011;11873;49.300;8.920;2023-06-14T09:18:54;3.43;;;3.00;;
23400;SDS011;11873;49.300;8.920;2023-06-14T09:23:55;3.40;;;3.10;;
23400;SDS011;11873;49.300;8.920;2023-06-14T09:28:55;3.70;;;3.17;;
23400;SDS011;11873;49.300;8.920;2023-06-14T09:33:55;3.57;;;3.27;;
23400;SDS011;11873;49.300;8.920;2023-06-14T09:38:56;4.50;;;3.50;;
23400;SDS011;11873;49.300;8.920;2023-06-14T09:43:57;4.13;;;3.80;;
23400;SDS011;11873;49.300;8.920;2023-06-14T09:48:58;3.40;;;3.10;;
23400;SDS011;11873;49.300;8.920;2023-06-14T09:53:58;4.53;;;3.17;;
23400;SDS011;11873;49.300;8.920;2023-06-14T09:58:59;5.17;;;2.80;;
23400;SDS011;11873;49.300;8.920;2023-06-14T10:04:01;4.17;;;3.23;;
23400;SDS011;11873;49.300;8.920;2023-06-14T10:09:02;2.80;;;2.60;;
23400;SDS011;11873;49.300;8.920;2023-06-14T10:14:04;4.57;;;3.60;;
23400;SDS011;11873;49.300;8.920;2023-06-14T10:19:42;3.20;;;2.90;;
23400;SDS011;11873;49.300;8.920;2023-06-14T10:24:41;3.00;;;2.60;;
23400;SDS011;11873;49.300;8.920;2023-06-14T10:34:58;4.17;;;3.30;;
23400;SDS011;11873;49.300;8.920;2023-06-14T10:39:58;3.30;;;3.00;;
23400;SDS011;11873;49.300;8.920;2023-06-14T10:44:59;1.93;;;1.83;;
23400;SDS011;11873;49.300;8.920;2023-06-14T10:50:07;3.20;;;2.87;;
23400;SDS011;11873;49.300;8.920;2023-06-14T10:55:08;3.03;;;2.60;;
23400;SDS011;11873;49.300;8.920;2023-06-14T11:00:09;3.10;;;2.80;;
23400;SDS011;11873;49.300;8.920;2023-06-14T11:05:10;2.23;;;2.10;;
23400;SDS011;11873;49.300;8.920;2023-06-14T11:15:31;3.80;;;3.50;;
23400;SDS011;11873;49.300;8.920;2023-06-14T11:20:32;5.23;;;3.13;;
23400;SDS011;11873;49.300;8.920;2023-06-14T11:25:33;2.90;;;2.70;;
23400;SDS011;11873;49.300;8.920;2023-06-14T11:30:33;4.77;;;2.80;;
23400;SDS011;11873;49.300;8.920;2023-06-14T11:35:33;3.03;;;2.77;;
23400;SDS011;11873;49.300;8.920;2023-06-14T11:40:34;3.10;;;2.80;;
23400;SDS011;11873;49.300;8.920;2023-06-14T11:45:34;4.83;;;2.63;;
23400;SDS011;11873;49.300;8.920;2023-06-14T11:50:37;3.13;;;2.90;;
23400;SDS011;11873;49.300;8.920;2023-06-14T11:55:37;3.50;;;3.20;;
23400;SDS011;11873;49.300;8.920;2023-06-14T12:00:38;4.10;;;2.67;;
23400;SDS011;11873;49.300;8.920;2023-06-14T12:05:38;2.80;;;2.47;;
23400;SDS011;11873;49.300;8.920;2023-06-14T12:10:41;2.83;;;2.50;;
23400;SDS011;11873;49.300;8.920;2023-06-14T12:15:41;3.87;;;3.37;;
23400;SDS011;11873;49.300;8.920;2023-06-14T12:20:41;3.27;;;2.97;;
23400;SDS011;11873;49.300;8.920;2023-06-14T12:25:41;2.90;;;2.70;;
23400;SDS011;11873;49.300;8.920;2023-06-14T12:30:42;3.40;;;3.10;;
23400;SDS011;11873;49.300;8.920;2023-06-14T12:35:42;2.60;;;2.40;;
23400;SDS011;11873;49.300;8.920;2023-06-14T12:40:42;3.23;;;2.93;;
23400;SDS011;11873;49.300;8.920;2023-06-14T12:45:42;4.87;;;3.17;;
23400;SDS011;11873;49.300;8.920;2023-06-14T12:50:45;4.10;;;3.03;;
23400;SDS011;11873;49.300;8.920;2023-06-14T12:55:45;3.53;;;3.23;;
23400;SDS011;11873;49.300;8.920;2023-06-14T13:00:46;2.73;;;2.53;;
23400;SDS011;11873;49.300;8.920;2023-06-14T13:05:46;3.73;;;2.90;;
23400;SDS011;11873;49.300;8.920;2023-06-14T13:10:46;2.60;;;2.40;;
23400;SDS011;11873;49.300;8.920;2023-06-14T13:15:46;5.10;;;3.13;;
23400;SDS011;11873;49.300;8.920;2023-06-14T13:20:46;2.97;;;2.63;;
23400;SDS011;11873;49.300;8.920;2023-06-14T13:25:47;3.17;;;2.60;;
23400;SDS011;11873;49.300;8.920;2023-06-14T13:30:47;3.47;;;3.27;;
23400;SDS011;11873;49.300;8.920;2023-06-14T13:35:48;3.43;;;2.70;;
23400;SDS011;11873;49.300;8.920;2023-06-14T13:40:48;1.77;;;1.63;;
23400;SDS011;11873;49.300;8.920;2023-06-14T13:45:48;4.13;;;3.00;;
23400;SDS011;11873;49.300;8.920;2023-06-14T13:50:48;3.33;;;2.93;;
23400;SDS011;11873;49.300;8.920;2023-06-14T13:55:49;2.90;;;2.70;;
23400;SDS011;11873;49.300;8.920;2023-06-14T14:00:49;7.37;;;3.20;;
23400;SDS011;11873;49.300;8.920;2023-06-14T14:05:49;3.90;;;3.60;;
23400;SDS011;11873;49.300;8.920;2023-06-14T14:10:49;3.43;;;3.13;;
23400;SDS011;11873;49.300;8.920;2023-06-14T14:15:49;3.53;;;3.07;;
23400;SDS011;11873;49.300;8.920;2023-06-14T14:20:50;5.97;;;3.27;;
23400;SDS011;11873;49.300;8.920;2023-06-14T14:25:50;4.90;;;3.53;;
23400;SDS011;11873;49.300;8.920;2023-06-14T14:30:50;2.70;;;2.50;;
23400;SDS011;11873;49.300;8.920;2023-06-14T14:35:50;2.93;;;2.73;;
23400;SDS011;11873;49.300;8.920;2023-06-14T14:40:50;3.63;;;3.20;;
23400;SDS011;11873;49.300;8.920;2023-06-14T14:45:51;3.60;;;3.30;;
23400;SDS011;11873;49.300;8.920;2023-06-14T14:50:51;3.23;;;2.97;;
23400;SDS011;11873;49.300;8.920;2023-06-14T14:55:51;3.90;;;3.50;;
23400;SDS011;11873;49.300;8.920;2023-06-14T15:00:51;2.90;;;2.70;;
23400;SDS011;11873;49.300;8.920;2023-06-14T15:05:51;4.37;;;3.23;;
23400;SDS011;11873;49.300;8.920;2023-06-14T15:10:52;4.13;;;3.17;;
23400;SDS011;11873;49.300;8.920;2023-06-14T15:15:52;3.23;;;3.03;;
23400;SDS011;11873;49.300;8.920;2023-06-14T15:20:52;3.00;;;2.80;;
23400;SDS011;11873;49.300;8.920;2023-06-14T15:25:52;5.03;;;2.90;;
23400;SDS011;11873;49.300;8.920;2023-06-14T15:30:52;3.57;;;3.20;;
23400;SDS011;11873;49.300;8.920;2023-06-14T15:35:53;3.90;;;2.80;;
23400;SDS011;11873;49.300;8.920;2023-06-14T15:40:53;2.83;;;2.63;;
23400;SDS011;11873;49.300;8.920;2023-06-14T15:45:53;3.33;;;2.90;;
23400;SDS011;11873;49.300;8.920;2023-06-14T15:50:53;3.50;;;3.20;;
23400;SDS011;11873;49.300;8.920;2023-06-14T15:55:53;3.10;;;2.90;;
23400;SDS011;11873;49.300;8.920;2023-06-14T16:00:54;3.37;;;3.07;;
23400;SDS011;11873;49.300;8.920;2023-06-14T16:05:54;3.83;;;3.50;;
23400;SDS011;11873;49.300;8.920;2023-06-14T16:10:54;3.43;;;3.13;;
23400;SDS011;11873;49.300;8.920;2023-06-14T16:15:54;4.80;;;3.77;;
23400;SDS011;11873;49.300;8.920;2023-06-14T16:20:54;2.80;;;2.60;;
23400;SDS011;11873;49.300;8.920;2023-06-14T16:25:54;3.10;;;2.83;;
23400;SDS011;11873;49.300;8.920;2023-06-14T16:30:55;3.70;;;2.90;;
23400;SDS011;11873;49.300;8.920;2023-06-14T16:35:55;3.70;;;2.50;;
23400;SDS011;11873;49.300;8.920;2023-06-14T16:40:55;4.17;;;3.30;;
23400;SDS011;11873;49.300;8.920;2023-06-14T16:45:55;4.13;;;3.10;;
23400;SDS011;11873;49.300;8.920;2023-06-14T16:50:55;2.90;;;2.70;;
23400;SDS011;11873;49.300;8.920;2023-06-14T16:55:55;2.97;;;2.77;;
23400;SDS011;11873;49.300;8.920;2023-06-14T17:00:56;3.07;;;2.77;;
23400;SDS011;11873;49.300;8.920;2023-06-14T17:05:56;4.73;;;2.90;;
23400;SDS011;11873;49.300;8.920;2023-06-14T17:10:56;2.90;;;2.70;;
23400;SDS011;11873;49.300;8.920;2023-06-14T17:15:56;3.63;;;3.33;;
23400;SDS011;11873;49.300;8.920;2023-06-14T17:20:57;6.63;;;2.83;;
23400;SDS011;11873;49.300;8.920;2023-06-14T17:25:57;3.70;;;3.40;;
23400;SDS011;11873;49.300;8.920;2023-06-14T17:30:57;3.33;;;3.13;;
23400;SDS011;11873;49.300;8.920;2023-06-14T17:35:57;3.70;;;2.77;;
23400;SDS011;11873;49.300;8.920;2023-06-14T17:40:57;4.57;;;3.40;;
23400;SDS011;11873;49.300;8.920;2023-06-14T17:45:57;3.33;;;2.90;;
23400;SDS011;11873;49.300;8.920;2023-06-14T17:50:58;4.37;;;3.57;;
23400;SDS011;11873;49.300;8.920;2023-06-14T17:55:59;3.73;;;3.10;;
23400;SDS011;11873;49.300;8.920;2023-06-14T18:00:59;3.50;;;3.17;;
23400;SDS011;11873;49.300;8.920;2023-06-14T18:05:59;3.20;;;2.93;;
23400;SDS011;11873;49.300;8.920;2023-06-14T18:10:59;3.80;;;3.50;;
23400;SDS011;11873;49.300;8.920;2023-06-14T18:15:59;3.07;;;2.83;;
23400;SDS011;11873;49.300;8.920;2023-06-14T18:21:00;3.33;;;3.00;;
23400;SDS011;11873;49.300;8.920;2023-06-14T18:26:00;3.43;;;2.73;;
23400;SDS011;11873;49.300;8.920;2023-06-14T18:31:00;3.50;;;2.83;;
23400;SDS011;11873;49.300;8.920;2023-06-14T18:36:00;3.77;;;2.97;;
23400;SDS011;11873;49.300;8.920;2023-06-14T18:41:00;3.00;;;2.70;;
23400;SDS011;11873;49.300;8.920;2023-06-14T18:46:01;3.37;;;3.00;;
23400;SDS011;11873;49.300;8.920;2023-06-14T18:51:01;3.50;;;3.20;;
23400;SDS011;11873;49.300;8.920;2023-06-14T18:56:02;4.27;;;3.07;;
23400;SDS011;11873;49.300;8.920;2023-06-14T19:01:02;2.93;;;2.73;;
23400;SDS011;11873;49.300;8.920;2023-06-14T19:06:02;3.63;;;3.30;;
23400;SDS011;11873;49.300;8.920;2023-06-14T19:11:02;3.37;;;3.07;;
23400;SDS011;11873;49.300;8.920;2023-06-14T19:16:02;4.17;;;2.80;;
23400;SDS011;11873;49.300;8.920;2023-06-14T19:21:02;3.17;;;2.90;;
23400;SDS011;11873;49.300;8.920;2023-06-14T19:26:03;3.43;;;2.87;;
23400;SDS011;11873;49.300;8.920;2023-06-14T19:31:03;3.27;;;2.70;;
23400;SDS011;11873;49.300;8.920;2023-06-14T19:36:03;3.07;;;2.87;;
23400;SDS011;11873;49.300;8.920;2023-06-14T19:41:04;4.40;;;3.37;;
23400;SDS011;11873;49.300;8.920;2023-06-14T19:46:04;3.37;;;3.07;;
23400;SDS011;11873;49.300;8.920;2023-06-14T19:51:04;4.10;;;2.90;;
23400;SDS011;11873;49.300;8.920;2023-06-14T19:56:04;4.53;;;3.37;;
23400;SDS011;11873;49.300;8.920;2023-06-14T20:01:04;5.20;;;2.93;;
23400;SDS011;11873;49.300;8.920;2023-06-14T20:06:04;3.90;;;3.20;;
23400;SDS011;11873;49.300;8.920;2023-06-14T20:11:05;4.30;;;3.50;;
23400;SDS011;11873;49.300;8.920;2023-06-14T20:16:05;5.40;;;3.10;;
23400;SDS011;11873;49.300;8.920;2023-06-14T20:21:05;3.63;;;3.30;;
23400;SDS011;11873;49.300;8.920;2023-06-14T20:26:05;3.73;;;3.37;;
23400;SDS011;11873;49.300;8.920;2023-06-14T20:31:05;3.60;;;3.27;;
23400;SDS011;11873;49.300;8.920;2023-06-14T20:36:05;4.13;;;3.67;;
23400;SDS011;11873;49.300;8.920;2023-06-14T20:41:06;4.57;;;3.37;;
23400;SDS011;11873;49.300;8.920;2023-06-14T20:46:06;3.73;;;3.43;;
23400;SDS011;11873;49.300;8.920;2023-06-14T20:51:06;3.67;;;3.37;;
23400;SDS011;11873;49.300;8.920;2023-06-14T20:56:06;3.33;;;3.03;;
23400;SDS011;11873;49.300;8.920;2023-06-14T21:01:06;3.70;;;3.40;;
23400;SDS011;11873;49.300;8.920;2023-06-14T21:06:07;3.80;;;3.50;;
23400;SDS011;11873;49.300;8.920;2023-06-14T21:11:07;3.70;;;3.40;;
23400;SDS011;11873;49.300;8.920;2023-06-14T21:16:07;5.33;;;3.40;;
23400;SDS011;11873;49.300;8.920;2023-06-14T21:21:07;3.40;;;3.10;;
23400;SDS011;11873;49.300;8.920;2023-06-14T21:26:07;4.37;;;3.50;;
23400;SDS011;11873;49.300;8.920;2023-06-14T21:31:08;3.70;;;3.40;;
23400;SDS011;11873;49.300;8.920;2023-06-14T21:36:08;3.43;;;3.13;;
23400;SDS011;11873;49.300;8.920;2023-06-14T21:41:08;5.83;;;2.90;;
23400;SDS011;11873;49.300;8.920;2023-06-14T21:46:08;4.77;;;3.10;;
23400;SDS011;11873;49.300;8.920;2023-06-14T21:51:08;4.83;;;3.17;;
23400;SDS011;11873;49.300;8.920;2023-06-14T21:56:09;4.10;;;3.03;;
23400;SDS011;11873;49.300;8.920;2023-06-14T22:01:09;3.83;;;3.40;;
23400;SDS011;11873;49.300;8.920;2023-06-14T22:06:09;4.27;;;3.43;;
23400;SDS011;11873;49.300;8.920;2023-06-14T22:11:09;4.07;;;2.93;;
23400;SDS011;11873;49.300;8.920;2023-06-14T22:16:09;4.67;;;3.53;;
23400;SDS011;11873;49.300;8.920;2023-06-14T22:21:09;3.50;;;3.20;;
23400;SDS011;11873;49.300;8.920;2023-06-14T22:26:10;3.20;;;2.90;;
23400;SDS011;11873;49.300;8.920;2023-06-14T22:31:11;5.13;;;3.37;;
23400;SDS011;11873;49.300;8.920;2023-06-14T22:36:12;4.37;;;2.87;;
23400;SDS011;11873;49.300;8.920;2023-06-14T22:41:12;3.53;;;3.07;;
23400;SDS011;11873;49.300;8.920;2023-06-14T22:46:12;3.10;;;2.90;;
23400;SDS011;11873;49.300;8.920;2023-06-14T22:51:13;4.03;;;3.23;;
23400;SDS011;11873;49.300;8.920;2023-06-14T22:56:14;3.30;;;3.00;;
23400;SDS011;11873;49.300;8.920;2023-06-14T23:01:15;3.37;;;3.07;;
23400;SDS011;11873;49.300;8.920;2023-06-14T23:06:16;4.00;;;3.70;;
23400;SDS011;11873;49.300;8.920;2023-06-14T23:11:16;3.67;;;3.37;;
23400;SDS011;11873;49.300;8.920;2023-06-14T23:16:17;4.70;;;3.33;;
23400;SDS011;11873;49.300;8.920;2023-06-14T23:21:17;3.50;;;3.20;;
23400;SDS011;11873;49.300;8.920;2023-06-14T23:26:17;3.63;;;2.80;;
23400;SDS011;11873;49.300;8.920;2023-06-14T23:31:17;6.10;;;3.67;;
23400;SDS011;11873;49.300;8.920;2023-06-14T23:36:17;3.93;;;3.50;;
23400;SDS011;11873;49.300;8.920;2023-06-14T23:41:17;3.87;;;3.27;;
23400;SDS011;11873;49.300;8.920;2023-06-14T23:46:18;3.13;;;2.93;;
23400;SDS011;11873;49.300;8.920;2023-06-14T23:51:18;3.60;;;3.30;;
23400;SDS011;11873;49.300;8.920;2023-06-14T23:56:18;2.87;;;2.63;;
